Impacts METAR Board
IDs:

KPIT - Pittsburgh Intl, PA, US

Updated at: 0700 UTC 24 Jan 2019
Potential Impact None Slight Moderate High
Time 23/19Z 23/20Z 23/21Z 23/22Z 23/23Z 24/00Z 24/01Z 24/02Z 24/03Z 24/04Z 24/05Z 24/06Z 24/07Z
Temp45 43 44 45 44 41 41 42 43 44 45 45 45
Dewpt43 43 44 45 44 41 41 42 43 44 45 45 45
Altim29.84 29.79 29.77 29.75 29.74 29.76 29.74 29.74 29.72 29.68 29.64 29.60 29.57
VIS9 10 10 10 10 10 7 4 3 2 0.75 1 1
CIG55 65 65 50 48 38 49 37 23 2 1 2 2
CoverOVCOVCOVCOVCOVCOVCOVCOVCOVCOVCOVCOVCOVC
FltCatVFRVFRVFRVFRVFRVFRVFRMVFRMVFRLIFRLIFRLIFRLIFR
WX-RA-RA---RA-RA-RA-RA-RA BR-RA BR-RA BR-RA BR-RA BR-RA BR
WDir180150150000170180160160170160170
WSpd3 3 5 0 0 0 3 5 4 5 5 6 5
WGst-- -- -- -- -- -- -- -- -- -- -- -- --
Raw hourly METARs
KPIT 231851Z 18003KT 9SM -RA FEW033 BKN055 OVC090 07/06 A2984 RMK AO2 SLP119 P0001 T00720061
KPIT 231951Z 15003KT 10SM -RA SCT050 BKN065 OVC095 06/06 A2979 RMK AO2 SLP100 P0003 T00610061
KPIT 232051Z 15005KT 10SM BKN065 OVC080 07/07 A2977 RMK AO2 RAE41 SLP095 P0001 60005 T00670067 57027
KPIT 232151Z 00000KT 10SM -RA OVC050 07/07 A2975 RMK AO2 RAB15 SLP088 P0000 T00720072
KPIT 232251Z 00000KT 10SM -RA BKN048 OVC060 07/07 A2974 RMK AO2 SLP084 P0001 T00670067
KPIT 232351Z 00000KT 10SM -RA BKN038 BKN048 OVC070 05/05 A2976 RMK AO2 RAE15B36 SLP091 P0001 60007 T00500050 10072 20050 55004
KPIT 240051Z 17003KT 7SM -RA BKN049 OVC070 05/05 A2974 RMK AO2 SLP084 P0003 T00500050
KPIT 240151Z 18005KT 4SM R28R/4500VP6000FT -RA BR FEW011 BKN037 OVC047 06/06 A2974 RMK AO2 SLP083 VIS SW 2 P0003 T00560056
KPIT 240251Z 16004KT 3SM -RA BR SCT001 BKN023 OVC043 06/06 A2972 RMK AO2 SLP079 P0008 60014 T00610061 56010
KPIT 240351Z 16005KT 2SM -RA BR BKN002 OVC008 07/07 A2968 RMK AO2 SLP063 P0007 T00670067
KPIT 240451Z 17005KT 3/4SM R28R/P6000FT -RA BR OVC001 07/07 A2964 RMK AO2 SLP050 P0002 T00720072 400720006
KPIT 240551Z 16006KT 1SM R28R/2600V4000FT -RA BR OVC002 07/07 A2960 RMK AO2 SLP034 P0003 60026 T00720072 10072 20044 57041
KPIT 240651Z 17005KT 1SM R28R/P6000FT -RA BR OVC002 07/07 A2957 RMK AO2 SFC VIS 2 SLP023 P0003 T00720072



Page loaded:  07:28 UTC  |   11:28 PM Pacific  |   12:28 AM Mountain  |   01:28 AM Central  |   02:28 AM Eastern

 

ADVISORIES

FORECASTS

FORECASTS

OBSERVATIONS

USER TOOLS

ABOUT US